Time;durP1;ratioP1;P1;durP2;ratioP2;P2;SDS_P1;SDS_P2;PMS_P1;PMS_P2;Temp;Humidity;BMP_temperature;BMP_pressure;BME280_temperature;BME280_humidity;BME280_pressure;Samples;Min_cycle;Max_cycle;Signal;HPM_P1;HPM_P2
2023/07/22 00:00:48;;;;;;;20.75;7.15;;;27.10;79.60;;;;;;5023328;28;20104;-80
2023/07/22 00:03:18;;;;;;;19.67;5.65;;;26.90;80.60;;;;;;5022838;28;20067;-79
2023/07/22 00:06:06;;;;;;;23.52;5.55;;;27.10;80.90;;;;;;5026860;28;20536;-80
2023/07/22 00:08:38;;;;;;;17.00;5.82;;;26.60;81.40;;;;;;5032662;28;20133;-79
2023/07/22 00:11:06;;;;;;;17.97;5.27;;;26.20;81.30;;;;;;5036976;28;20065;-81
2023/07/22 00:13:34;;;;;;;15.48;5.32;;;26.40;81.90;;;;;;5042852;28;20294;-81
2023/07/22 00:16:05;;;;;;;24.02;6.82;;;26.40;82.30;;;;;;5011167;28;20485;-79
2023/07/22 00:18:32;;;;;;;18.10;6.47;;;26.50;81.80;;;;;;5035638;28;20071;-80
2023/07/22 00:21:00;;;;;;;21.38;5.30;;;26.40;82.10;;;;;;5033718;28;20041;-79
2023/07/22 00:23:28;;;;;;;20.98;7.95;;;26.40;81.70;;;;;;5046037;28;20038;-80
2023/07/22 00:25:55;;;;;;;16.05;6.07;;;26.60;82.10;;;;;;5034588;28;20386;-79
2023/07/22 00:28:27;;;;;;;20.55;5.82;;;26.90;81.40;;;;;;5042907;28;20037;-80
2023/07/22 00:30:57;;;;;;;16.30;5.50;;;27.20;80.90;;;;;;5034649;28;20405;-79
2023/07/22 00:33:25;;;;;;;15.30;6.35;;;27.30;80.60;;;;;;5023047;28;20409;-79
2023/07/22 00:36:22;;;;;;;15.80;6.50;;;27.50;79.40;;;;;;5033586;28;20040;-78
2023/07/22 00:38:52;;;;;;;20.45;5.88;;;27.50;79.00;;;;;;5023727;28;20048;-78
2023/07/22 00:41:20;;;;;;;17.23;6.13;;;27.50;79.10;;;;;;5054486;28;20033;-79
2023/07/22 00:43:47;;;;;;;20.70;8.35;;;27.50;79.20;;;;;;5055735;28;20351;-84
2023/07/22 00:46:15;;;;;;;21.02;8.77;;;27.40;79.30;;;;;;5022963;28;20147;-89
2023/07/22 00:49:11;;;;;;;20.27;8.43;;;27.40;79.70;;;;;;5029097;28;20053;-90
2023/07/22 00:51:54;;;;;;;17.20;6.85;;;27.40;81.10;;;;;;5020862;28;20369;-85
2023/07/22 00:54:55;;;;;;;18.10;5.95;;;27.40;81.00;;;;;;5026603;28;20075;-90
2023/07/22 00:58:04;;;;;;;15.55;6.20;;;27.20;81.20;;;;;;5017872;28;20045;-87
2023/07/22 01:00:55;;;;;;;16.25;6.15;;;27.40;81.70;;;;;;5019094;28;20042;-88
2023/07/22 01:03:41;;;;;;;20.95;6.40;;;27.10;82.00;;;;;;5003016;28;20060;-89
2023/07/22 01:07:18;;;;;;;19.70;6.60;;;27.20;81.50;;;;;;5020349;28;20046;-90
2023/07/22 01:10:08;;;;;;;15.48;6.82;;;27.10;81.60;;;;;;5019659;28;20045;-89
2023/07/22 01:13:14;;;;;;;19.55;6.97;;;27.20;81.80;;;;;;5018946;28;20432;-89
2023/07/22 01:16:26;;;;;;;13.85;6.13;;;27.10;83.20;;;;;;5016294;28;20088;-92
2023/07/22 01:19:18;;;;;;;18.65;6.95;;;27.20;82.50;;;;;;5013288;28;20041;-92
2023/07/22 01:22:27;;;;;;;23.85;6.78;;;27.00;82.20;;;;;;5024754;28;20053;-88
2023/07/22 01:25:40;;;;;;;21.10;8.02;;;26.90;82.30;;;;;;4998663;28;20065;-88
2023/07/22 01:39:34;;;;;;;14.85;5.35;;;26.90;82.50;;;;;;5010832;28;20049;-90
2023/07/22 01:42:35;;;;;;;11.38;5.55;;;26.90;82.50;;;;;;4979575;28;20042;-90
2023/07/22 01:45:18;;;;;;;23.05;6.38;;;26.90;82.70;;;;;;4990874;28;20110;-87
2023/07/22 01:48:00;;;;;;;16.48;5.75;;;26.90;82.30;;;;;;4988859;28;20046;-86
2023/07/22 01:50:28;;;;;;;14.43;5.82;;;26.80;82.50;;;;;;4951290;28;20054;-87
2023/07/22 01:52:59;;;;;;;14.05;6.22;;;26.80;82.80;;;;;;4967127;28;20046;-88
2023/07/22 01:55:40;;;;;;;14.13;5.70;;;26.70;82.60;;;;;;4984867;28;20042;-87
2023/07/22 01:58:48;;;;;;;20.65;6.13;;;26.60;83.10;;;;;;4952944;28;20138;-87
2023/07/22 02:01:36;;;;;;;17.25;5.93;;;26.60;82.80;;;;;;4975968;28;20066;-88
2023/07/22 02:04:36;;;;;;;21.08;6.28;;;26.50;82.70;;;;;;4981818;28;20465;-86
2023/07/22 02:07:56;;;;;;;22.08;8.50;;;26.60;82.40;;;;;;5000261;28;20050;-87
2023/07/22 02:10:52;;;;;;;16.13;6.63;;;26.60;82.50;;;;;;4952383;28;20051;-88
2023/07/22 02:17:20;;;;;;;15.00;6.13;;;26.70;85.10;;;;;;4962193;28;20103;-85
2023/07/22 02:19:49;;;;;;;16.43;6.00;;;26.50;84.50;;;;;;4959387;28;20380;-85
2023/07/22 02:22:17;;;;;;;16.80;5.32;;;26.40;84.70;;;;;;4977663;28;20043;-90
2023/07/22 02:25:10;;;;;;;20.67;6.18;;;26.40;84.10;;;;;;5000899;28;20047;-91
2023/07/22 02:27:40;;;;;;;18.95;5.45;;;26.40;84.30;;;;;;4980748;28;20038;-86
2023/07/22 02:30:45;;;;;;;17.08;5.55;;;26.50;84.80;;;;;;4950078;29;20078;-91
2023/07/22 02:34:17;;;;;;;11.40;6.10;;;26.60;85.20;;;;;;4965358;28;20039;-92
2023/07/22 02:37:11;;;;;;;12.55;5.53;;;26.70;86.50;;;;;;4995168;28;20061;-89
2023/07/22 02:40:36;;;;;;;16.60;6.15;;;26.50;85.20;;;;;;4969922;28;20057;-92
2023/07/22 02:43:18;;;;;;;16.85;5.07;;;26.40;84.50;;;;;;4978324;28;20092;-88
2023/07/22 02:49:47;;;;;;;13.13;4.75;;;26.30;84.60;;;;;;4991471;28;19954;-91
2023/07/22 02:57:18;;;;;;;15.25;5.25;;;26.40;84.80;;;;;;4997333;28;20074;-92
2023/07/22 03:21:43;;;;;;;16.42;5.95;;;26.20;86.70;;;;;;681254;23;20326;-84
2023/07/22 03:28:03;;;;;;;15.25;5.80;;;26.00;87.40;;;;;;5002269;28;20029;-87
2023/07/22 03:30:46;;;;;;;20.70;6.25;;;26.00;86.40;;;;;;4970573;28;20051;-89
2023/07/22 03:36:58;;;;;;;18.90;6.70;;;25.80;87.80;;;;;;4983483;28;20069;-86
2023/07/22 03:40:11;;;;;;;15.45;5.88;;;25.50;87.90;;;;;;4982591;28;20050;-85
2023/07/22 03:43:05;;;;;;;14.80;5.88;;;25.60;87.80;;;;;;4987215;28;20049;-87
2023/07/22 03:49:41;;;;;;;21.65;5.93;;;25.80;87.80;;;;;;5121382;23;20039;-88
2023/07/22 03:52:23;;;;;;;16.48;6.50;;;26.00;87.70;;;;;;4979801;28;20050;-88
2023/07/22 03:55:26;;;;;;;16.63;6.80;;;26.10;89.30;;;;;;4959665;29;20218;-91
2023/07/22 04:24:10;;;;;;;18.58;6.00;;;26.30;86.60;;;;;;4971248;28;20513;-85
2023/07/22 04:27:00;;;;;;;19.35;5.90;;;26.30;86.60;;;;;;4924568;29;20060;-86
2023/07/22 04:30:34;;;;;;;18.77;6.53;;;26.30;86.90;;;;;;4945103;28;20050;-88
2023/07/22 04:37:28;;;;;;;15.32;6.00;;;26.20;87.10;;;;;;4962181;29;19917;-89
2023/07/22 04:44:04;;;;;;;18.17;5.40;;;25.40;89.40;;;;;;4963463;29;20035;-86
2023/07/22 04:46:40;;;;;;;21.23;5.57;;;25.30;89.30;;;;;;4975216;28;20139;-84
2023/07/22 04:49:17;;;;;;;18.52;5.65;;;25.60;88.60;;;;;;4935177;29;20051;-90
2023/07/22 04:56:28;;;;;;;19.13;5.30;;;25.60;88.60;;;;;;4995833;23;20072;-89
2023/07/22 05:08:48;;;;;;;21.83;5.35;;;26.40;87.00;;;;;;4987614;28;20429;-90
2023/07/22 05:12:14;;;;;;;17.45;5.68;;;26.50;86.50;;;;;;4995123;28;20034;-86
2023/07/22 05:15:39;;;;;;;16.73;5.93;;;26.50;85.90;;;;;;4980425;23;20046;-88
2023/07/22 05:28:37;;;;;;;15.52;5.72;;;26.80;88.60;;;;;;5076988;23;20062;-90
2023/07/22 05:31:21;;;;;;;17.52;6.00;;;26.70;88.20;;;;;;4947874;29;20039;-86
2023/07/22 05:35:05;;;;;;;17.52;7.10;;;26.80;89.20;;;;;;4979196;28;20077;-87
2023/07/22 05:38:46;;;;;;;19.85;6.13;;;26.70;88.30;;;;;;4981609;28;20043;-89
2023/07/22 05:49:24;;;;;;;20.00;6.88;;;27.00;88.60;;;;;;5525542;23;20308;-87
2023/07/22 06:00:02;;;;;;;22.80;8.75;;;26.90;90.50;;;;;;4956119;29;20063;-86
2023/07/22 06:11:28;;;;;;;25.45;10.35;;;26.70;91.10;;;;;;5028695;23;20051;-86
2023/07/22 06:14:46;;;;;;;20.63;10.88;;;26.50;91.50;;;;;;4947094;29;20074;-81
2023/07/22 06:17:53;;;;;;;76.45;49.20;;;26.50;91.70;;;;;;4906804;29;20438;-84
2023/07/22 06:20:31;;;;;;;59.97;33.88;;;26.70;91.40;;;;;;4911152;29;20068;-82
2023/07/22 06:23:04;;;;;;;26.88;14.45;;;26.70;91.50;;;;;;4912293;29;20044;-81
2023/07/22 06:25:49;;;;;;;24.13;10.43;;;26.70;91.40;;;;;;4908967;29;20084;-84
2023/07/22 06:28:17;;;;;;;25.02;10.25;;;26.70;91.50;;;;;;4908481;29;20036;-85
2023/07/22 06:30:59;;;;;;;30.45;11.55;;;26.90;91.50;;;;;;4896770;29;20063;-84
2023/07/22 06:33:41;;;;;;;24.65;11.95;;;26.90;91.50;;;;;;4895906;29;20095;-84
2023/07/22 06:36:24;;;;;;;30.20;11.18;;;27.10;91.30;;;;;;4882480;29;20047;-83
2023/07/22 06:38:52;;;;;;;23.13;10.20;;;27.30;91.30;;;;;;4908182;29;20498;-84
2023/07/22 06:41:30;;;;;;;29.40;10.85;;;27.30;90.90;;;;;;4912417;29;20044;-87
2023/07/22 06:44:03;;;;;;;21.42;9.20;;;27.40;90.90;;;;;;4911924;29;20488;-83
2023/07/22 06:46:44;;;;;;;26.67;8.82;;;27.50;90.60;;;;;;4876741;29;20519;-85
2023/07/22 06:49:20;;;;;;;94.95;56.55;;;27.40;90.60;;;;;;4941025;29;20044;-87
2023/07/22 06:52:02;;;;;;;107.40;66.85;;;27.40;90.50;;;;;;4907664;29;20051;-83
2023/07/22 06:54:30;;;;;;;45.78;24.38;;;27.40;91.00;;;;;;4940282;29;20043;-82
2023/07/22 06:56:58;;;;;;;28.95;16.75;;;27.50;90.70;;;;;;4941593;29;20082;-82
2023/07/22 06:59:26;;;;;;;29.38;14.43;;;27.60;90.70;;;;;;4945512;29;20127;-83
2023/07/22 07:02:09;;;;;;;21.23;10.60;;;27.70;91.10;;;;;;4893823;29;20036;-89
2023/07/22 07:05:06;;;;;;;82.43;54.95;;;27.60;91.00;;;;;;4893110;29;20044;-87
2023/07/22 07:08:02;;;;;;;39.22;20.73;;;27.70;90.60;;;;;;4940133;29;20433;-90
2023/07/22 07:10:53;;;;;;;29.88;19.00;;;27.80;90.20;;;;;;4932521;29;20134;-86
2023/07/22 07:13:26;;;;;;;34.70;24.37;;;27.90;90.10;;;;;;4938803;29;20054;-86
2023/07/22 07:16:33;;;;;;;82.60;51.95;;;27.90;90.30;;;;;;4949973;29;20273;-86
2023/07/22 07:19:10;;;;;;;39.60;28.02;;;27.90;90.20;;;;;;4934741;29;20082;-91
2023/07/22 07:21:43;;;;;;;19.63;11.00;;;27.90;89.90;;;;;;4948942;29;20062;-86
2023/07/22 07:24:29;;;;;;;21.58;11.35;;;27.90;90.00;;;;;;4965176;29;20051;-89
2023/07/22 07:27:20;;;;;;;14.02;7.13;;;27.90;90.30;;;;;;4937842;29;20055;-88
2023/07/22 07:29:48;;;;;;;15.85;8.13;;;27.90;90.50;;;;;;4932384;29;20101;-87
2023/07/22 07:32:18;;;;;;;;;;;27.90;90.80;;;;;;4965333;29;20051;-84
2023/07/22 07:34:48;;;;;;;18.90;8.85;;;28.00;90.50;;;;;;4970300;29;19922;-90
2023/07/22 07:38:12;;;;;;;12.35;6.93;;;28.10;90.50;;;;;;4950955;29;20053;-80
2023/07/22 07:40:44;;;;;;;14.25;7.50;;;28.30;90.50;;;;;;4948706;29;20104;-83
2023/07/22 07:43:14;;;;;;;13.68;7.90;;;28.40;90.30;;;;;;4931107;29;20043;-87
2023/07/22 07:46:29;;;;;;;15.82;7.47;;;28.40;90.10;;;;;;4941345;29;20050;-87
2023/07/22 07:49:00;;;;;;;12.38;6.90;;;28.50;90.20;;;;;;4939023;29;20045;-87
2023/07/22 07:51:42;;;;;;;12.55;6.53;;;28.50;89.80;;;;;;4937695;29;20071;-84
2023/07/22 07:57:50;;;;;;;12.88;7.30;;;28.50;89.40;;;;;;4935591;29;20086;-85
2023/07/22 08:00:21;;;;;;;11.05;6.78;;;28.70;89.70;;;;;;4967215;29;20066;-82
2023/07/22 08:02:49;;;;;;;13.43;7.85;;;28.90;89.10;;;;;;4944559;29;20412;-84
2023/07/22 08:05:22;;;;;;;12.10;6.78;;;28.80;88.30;;;;;;4930429;29;20055;-84
2023/07/22 08:07:56;;;;;;;13.90;6.65;;;28.80;88.40;;;;;;4950329;29;20398;-81
2023/07/22 08:10:24;;;;;;;10.75;6.75;;;28.80;88.30;;;;;;4958218;29;20059;-83
2023/07/22 08:12:51;;;;;;;15.02;7.63;;;28.80;87.50;;;;;;4955524;29;20044;-80
2023/07/22 08:15:23;;;;;;;17.80;7.93;;;28.90;88.40;;;;;;4931777;29;20039;-85
2023/07/22 08:17:51;;;;;;;12.57;6.15;;;28.90;88.40;;;;;;4946892;29;20380;-81
2023/07/22 08:20:18;;;;;;;11.05;6.25;;;28.80;87.40;;;;;;4936153;29;20048;-79
2023/07/22 08:22:45;;;;;;;15.65;7.10;;;28.90;88.20;;;;;;4926064;29;20105;-82
2023/07/22 08:25:13;;;;;;;27.13;20.50;;;29.00;87.30;;;;;;4952532;29;20043;-78
2023/07/22 08:27:40;;;;;;;21.10;15.80;;;29.00;87.60;;;;;;4957397;29;20043;-75
2023/07/22 08:30:08;;;;;;;26.23;20.55;;;29.20;87.00;;;;;;4957985;29;20050;-80
2023/07/22 08:32:35;;;;;;;13.98;7.60;;;29.10;86.40;;;;;;4955494;28;20051;-76
2023/07/22 08:35:03;;;;;;;15.98;8.32;;;29.10;86.30;;;;;;4955846;29;20055;-78
2023/07/22 08:37:31;;;;;;;9.98;7.82;;;29.20;88.10;;;;;;4938338;29;20035;-79
2023/07/22 08:39:59;;;;;;;28.35;9.82;;;29.20;88.00;;;;;;4956428;28;20109;-78
2023/07/22 08:42:29;;;;;;;21.05;7.90;;;29.20;86.10;;;;;;4955206;28;20098;-81
2023/07/22 08:45:01;;;;;;;43.40;29.73;;;29.10;87.30;;;;;;4955742;28;20510;-81
2023/07/22 08:47:29;;;;;;;38.25;26.70;;;29.20;83.50;;;;;;4917705;29;20102;-83
2023/07/22 08:50:00;;;;;;;35.15;24.08;;;29.40;82.90;;;;;;4939419;29;20055;-82
2023/07/22 08:52:28;;;;;;;32.05;20.25;;;29.50;82.40;;;;;;4924016;29;20047;-83
2023/07/22 08:54:56;;;;;;;20.08;12.98;;;29.60;83.20;;;;;;4940915;29;20061;-78
2023/07/22 08:57:24;;;;;;;16.38;8.43;;;29.70;81.80;;;;;;4932058;29;20057;-81
2023/07/22 08:59:52;;;;;;;15.23;10.35;;;29.70;80.40;;;;;;4921485;29;20126;-78
2023/07/22 09:02:20;;;;;;;18.65;9.27;;;29.80;81.50;;;;;;4954577;28;20138;-78
2023/07/22 09:04:47;;;;;;;25.92;16.75;;;29.90;81.00;;;;;;4955436;28;20102;-83
2023/07/22 09:07:16;;;;;;;21.15;13.98;;;29.90;82.50;;;;;;4916168;29;20047;-79
2023/07/22 09:09:46;;;;;;;27.13;19.83;;;30.10;83.00;;;;;;4956365;28;20129;-81
2023/07/22 09:12:14;;;;;;;11.68;6.93;;;30.10;82.70;;;;;;4929849;28;20047;-81
2023/07/22 09:14:43;;;;;;;18.92;8.13;;;30.10;82.30;;;;;;4948282;29;20546;-79
2023/07/22 09:17:13;;;;;;;18.30;6.70;;;30.20;81.90;;;;;;4933734;29;20127;-78
2023/07/22 09:19:41;;;;;;;14.10;8.05;;;30.40;81.90;;;;;;4962594;28;20102;-80
2023/07/22 09:22:10;;;;;;;21.48;8.18;;;30.50;81.70;;;;;;4954404;28;20046;-81
2023/07/22 09:24:37;;;;;;;12.88;6.65;;;30.40;82.20;;;;;;4938839;29;20598;-80
2023/07/22 09:27:05;;;;;;;14.20;6.57;;;30.50;81.80;;;;;;4959770;28;20046;-80
2023/07/22 09:29:44;;;;;;;16.67;6.88;;;30.60;82.10;;;;;;4953626;28;20114;-80
2023/07/22 09:32:12;;;;;;;19.50;5.85;;;30.80;81.90;;;;;;4953742;28;20075;-76
2023/07/22 09:34:55;;;;;;;17.27;7.47;;;30.90;82.20;;;;;;4953112;29;20444;-81
2023/07/22 09:37:37;;;;;;;61.00;43.45;;;31.10;82.10;;;;;;4922103;29;20031;-84
2023/07/22 09:40:25;;;;;;;27.77;18.23;;;31.10;81.90;;;;;;4934441;29;20059;-77
2023/07/22 09:42:55;;;;;;;29.20;18.80;;;31.30;81.30;;;;;;4959262;28;20039;-77
2023/07/22 09:45:28;;;;;;;34.58;19.20;;;31.30;81.40;;;;;;4927706;29;20079;-76
2023/07/22 09:47:59;;;;;;;19.13;12.48;;;31.50;80.80;;;;;;4964380;28;20043;-76
2023/07/22 09:50:27;;;;;;;32.92;25.15;;;31.50;80.50;;;;;;4949363;29;20055;-74
2023/07/22 09:52:57;;;;;;;23.80;13.77;;;31.50;80.60;;;;;;4959148;28;20043;-77
2023/07/22 09:55:31;;;;;;;20.30;11.00;;;31.50;80.60;;;;;;4913556;29;20407;-76
2023/07/22 09:58:10;;;;;;;18.33;13.80;;;31.50;80.00;;;;;;4938898;29;20513;-78
2023/07/22 10:00:50;;;;;;;18.60;10.55;;;31.50;80.60;;;;;;4930623;29;20043;-79
2023/07/22 10:03:21;;;;;;;25.33;18.55;;;31.50;81.10;;;;;;4958716;28;20063;-79
2023/07/22 10:05:50;;;;;;;33.65;22.20;;;31.60;80.30;;;;;;4959470;29;20394;-83
2023/07/22 10:08:19;;;;;;;28.73;21.17;;;31.90;80.20;;;;;;4949278;29;20043;-77
2023/07/22 10:10:53;;;;;;;28.52;22.05;;;32.10;79.30;;;;;;4959855;28;20073;-78
2023/07/22 10:13:21;;;;;;;25.50;16.13;;;32.20;79.30;;;;;;4922360;29;20138;-77
2023/07/22 10:15:48;;;;;;;27.95;18.02;;;32.10;79.40;;;;;;4964942;28;20051;-78
2023/07/22 10:18:17;;;;;;;107.70;71.53;;;32.30;78.90;;;;;;4957688;28;20035;-83
2023/07/22 10:20:50;;;;;;;75.93;53.75;;;32.30;78.90;;;;;;4963295;28;20054;-76
2023/07/22 10:23:21;;;;;;;41.63;25.60;;;32.30;78.50;;;;;;4941581;29;20475;-77
2023/07/22 10:25:50;;;;;;;20.77;10.68;;;32.10;78.60;;;;;;4961660;28;20047;-81
2023/07/22 10:28:32;;;;;;;17.42;7.53;;;32.20;77.60;;;;;;4948502;29;20051;-85
2023/07/22 10:31:09;;;;;;;14.82;6.50;;;32.40;76.60;;;;;;4945203;29;20117;-85
2023/07/22 10:43:07;;;;;;;12.20;5.88;;;32.90;76.90;;;;;;5874151;23;20138;-85
2023/07/22 10:45:52;;;;;;;14.77;6.03;;;33.10;77.20;;;;;;4960206;28;20050;-86
2023/07/22 10:48:23;;;;;;;13.68;6.63;;;33.10;76.10;;;;;;4939419;29;20055;-84
2023/07/22 10:51:14;;;;;;;12.93;6.35;;;33.20;76.10;;;;;;4933416;29;20051;-83
2023/07/22 10:53:47;;;;;;;14.63;8.18;;;33.40;76.40;;;;;;4957245;28;20078;-86
2023/07/22 10:56:26;;;;;;;16.73;7.05;;;33.60;75.20;;;;;;4959080;28;20106;-84
2023/07/22 10:59:14;;;;;;;15.68;6.43;;;33.50;74.30;;;;;;4942908;29;20398;-84
2023/07/22 11:01:45;;;;;;;13.00;6.05;;;33.50;74.70;;;;;;4930241;29;20389;-85
2023/07/22 11:04:32;;;;;;;18.65;7.13;;;33.50;75.10;;;;;;4946398;29;20075;-85
2023/07/22 11:07:05;;;;;;;18.05;6.38;;;33.70;74.20;;;;;;4951964;29;20447;-84
2023/07/22 11:09:34;;;;;;;14.93;5.97;;;33.60;74.20;;;;;;4966087;29;20047;-84
2023/07/22 11:12:18;;;;;;;17.50;7.03;;;33.70;75.00;;;;;;4966067;29;20047;-84
2023/07/22 11:15:01;;;;;;;14.32;6.35;;;33.80;73.90;;;;;;4939545;28;20044;-84
2023/07/22 11:17:32;;;;;;;12.80;6.15;;;33.70;74.00;;;;;;4969336;28;20035;-85
2023/07/22 11:20:02;;;;;;;17.08;7.47;;;33.70;74.10;;;;;;4949566;28;20043;-86
2023/07/22 11:22:40;;;;;;;13.80;6.47;;;33.80;72.90;;;;;;4946115;29;20078;-85
2023/07/22 11:25:07;;;;;;;13.95;5.25;;;33.90;72.70;;;;;;4945554;29;20039;-85
2023/07/22 11:27:53;;;;;;;15.98;5.88;;;34.00;71.20;;;;;;5306031;23;20047;-84
2023/07/22 11:31:05;;;;;;;14.63;6.03;;;34.10;70.10;;;;;;4940149;29;20047;-84
2023/07/22 11:33:44;;;;;;;18.63;6.45;;;34.30;70.40;;;;;;4927273;29;20043;-83
2023/07/22 11:36:14;;;;;;;22.23;10.55;;;34.50;68.60;;;;;;4951810;28;20150;-85
2023/07/22 11:42:21;;;;;;;13.15;7.10;;;34.50;67.70;;;;;;4938760;29;20078;-84
2023/07/22 11:45:06;;;;;;;17.15;7.25;;;34.50;69.00;;;;;;4942372;29;20046;-85
2023/07/22 11:47:34;;;;;;;18.17;8.32;;;34.70;68.40;;;;;;4959986;29;20043;-85
2023/07/22 11:50:08;;;;;;;18.20;9.15;;;34.80;68.10;;;;;;4954119;28;20138;-83
2023/07/22 11:52:49;;;;;;;;;;;34.60;68.80;;;;;;4946039;28;20049;-86
2023/07/22 11:55:44;;;;;;;24.77;11.18;;;34.80;67.80;;;;;;4927311;29;19922;-85
2023/07/22 11:58:13;;;;;;;22.30;12.57;;;35.00;68.50;;;;;;4935393;29;20494;-84
2023/07/22 12:00:46;;;;;;;27.60;13.43;;;35.30;69.00;;;;;;4960027;29;20039;-85
2023/07/22 12:03:35;;;;;;;22.15;12.27;;;35.40;68.50;;;;;;4941094;29;20046;-86
2023/07/22 12:06:51;;;;;;;21.92;11.30;;;35.40;67.80;;;;;;4894417;29;20064;-84
2023/07/22 12:09:58;;;;;;;26.83;12.73;;;35.50;68.60;;;;;;4939975;29;20051;-85
2023/07/22 12:16:38;;;;;;;21.48;9.10;;;35.60;67.30;;;;;;5943667;23;20027;-82
2023/07/22 12:19:28;;;;;;;31.55;12.30;;;35.40;66.70;;;;;;4947216;29;20035;-80
2023/07/22 12:21:58;;;;;;;22.17;8.82;;;35.40;66.90;;;;;;4953371;28;20066;-84
2023/07/22 12:24:48;;;;;;;25.85;13.18;;;35.30;66.60;;;;;;4947425;28;20066;-85
2023/07/22 12:34:41;;;;;;;24.90;10.85;;;34.90;69.30;;;;;;4956018;28;20061;-77
2023/07/22 12:37:12;;;;;;;49.25;32.67;;;34.60;68.50;;;;;;4959636;28;20130;-75
2023/07/22 12:39:39;;;;;;;42.00;25.05;;;34.90;67.90;;;;;;4958897;28;20101;-77
2023/07/22 12:42:11;;;;;;;56.25;40.97;;;35.00;67.00;;;;;;4956904;28;20070;-75
2023/07/22 12:44:39;;;;;;;36.00;24.08;;;34.90;67.60;;;;;;4959629;28;20066;-76
2023/07/22 12:47:08;;;;;;;39.22;25.42;;;34.80;68.80;;;;;;4922322;28;20047;-77
2023/07/22 12:49:36;;;;;;;56.17;39.83;;;34.30;69.40;;;;;;4974961;28;20097;-77
2023/07/22 12:52:09;;;;;;;43.63;28.57;;;34.50;69.50;;;;;;4956729;28;20555;-81
2023/07/22 12:54:40;;;;;;;34.60;23.85;;;34.60;69.60;;;;;;4947877;28;20051;-79
2023/07/22 12:57:22;;;;;;;25.27;14.73;;;33.80;70.50;;;;;;4959653;28;20043;-83
2023/07/22 12:59:50;;;;;;;20.73;8.43;;;34.10;69.60;;;;;;4938809;28;20081;-84
2023/07/22 13:02:36;;;;;;;21.83;10.73;;;34.40;68.50;;;;;;4964407;28;20042;-86
2023/07/22 13:05:42;;;;;;;21.80;11.52;;;35.10;66.00;;;;;;4971949;28;20131;-84
2023/07/22 13:08:18;;;;;;;28.30;14.07;;;35.00;67.10;;;;;;4964604;28;20047;-85
2023/07/22 13:11:08;;;;;;;27.77;16.00;;;34.40;67.30;;;;;;5077848;23;20053;-90
2023/07/22 13:17:45;;;;;;;25.30;14.15;;;36.00;65.10;;;;;;4954385;28;20043;-88
2023/07/22 13:20:14;;;;;;;32.88;13.27;;;36.50;64.30;;;;;;4936862;28;20426;-86
2023/07/22 13:26:55;;;;;;;29.05;11.93;;;36.60;63.50;;;;;;4986829;23;20483;-87
2023/07/22 13:29:27;;;;;;;128.48;82.50;;;36.90;63.80;;;;;;4942259;28;20057;-83
2023/07/22 13:31:59;;;;;;;67.78;40.42;;;36.30;61.20;;;;;;4966515;28;20075;-91
2023/07/22 13:34:46;;;;;;;81.43;54.47;;;35.80;64.50;;;;;;4965603;28;20039;-89
2023/07/22 13:40:56;;;;;;;22.27;10.63;;;35.50;64.80;;;;;;4940916;29;20043;-85
2023/07/22 13:43:27;;;;;;;20.38;9.00;;;36.40;63.10;;;;;;4930957;29;20047;-87
2023/07/22 13:46:32;;;;;;;21.05;9.38;;;36.60;61.80;;;;;;4924836;29;20067;-86
2023/07/22 13:52:19;;;;;;;25.00;8.00;;;36.90;60.50;;;;;;4924185;29;20063;-86
2023/07/22 13:55:41;;;;;;;19.83;6.55;;;37.10;61.60;;;;;;4916498;29;20216;-84
2023/07/22 13:58:58;;;;;;;23.05;7.15;;;37.20;59.70;;;;;;4938544;29;20166;-88
2023/07/22 14:05:31;;;;;;;17.80;6.03;;;37.20;60.20;;;;;;4936767;29;20044;-87
2023/07/22 14:08:21;;;;;;;20.33;5.25;;;37.20;58.20;;;;;;4913160;29;20092;-86
2023/07/22 14:11:45;;;;;;;25.08;5.30;;;37.40;55.90;;;;;;4931871;29;20508;-87
2023/07/22 14:14:28;;;;;;;25.80;5.75;;;37.80;50.60;;;;;;4916539;29;20559;-89
2023/07/22 14:17:16;;;;;;;28.08;4.45;;;38.10;48.10;;;;;;4943800;29;20453;-86
2023/07/22 14:19:53;;;;;;;28.35;4.38;;;40.90;46.50;;;;;;4948179;29;20040;-88
2023/07/22 14:22:23;;;;;;;16.83;4.30;;;40.80;44.30;;;;;;4944418;29;20091;-79
2023/07/22 14:29:07;;;;;;;22.70;6.03;;;40.90;42.80;;;;;;4943883;29;20058;-87
2023/07/22 14:32:29;;;;;;;23.70;4.60;;;41.70;42.60;;;;;;4954470;28;20051;-93
2023/07/22 14:34:57;;;;;;;13.68;4.68;;;42.10;43.10;;;;;;4944102;29;20735;-92
2023/07/22 14:38:07;;;;;;;24.67;6.28;;;42.10;41.00;;;;;;4943689;29;20055;-91
2023/07/22 14:40:54;;;;;;;16.73;4.90;;;42.00;41.30;;;;;;4952621;29;20036;-88
2023/07/22 14:43:25;;;;;;;22.33;4.90;;;41.70;41.20;;;;;;4956929;29;20047;-89
2023/07/22 14:47:04;;;;;;;21.92;3.67;;;42.70;40.80;;;;;;4951748;29;20074;-88
2023/07/22 14:50:07;;;;;;;22.23;4.78;;;42.80;39.00;;;;;;4957509;29;20393;-83
2023/07/22 14:52:37;;;;;;;14.95;4.53;;;41.30;39.70;;;;;;4969511;28;20047;-83
2023/07/22 14:55:18;;;;;;;19.85;6.22;;;41.00;40.40;;;;;;4938243;29;20040;-83
2023/07/22 14:57:59;;;;;;;26.08;4.93;;;41.40;41.30;;;;;;4948560;29;20047;-89
2023/07/22 15:00:34;;;;;;;26.67;7.72;;;41.40;40.50;;;;;;4942097;29;20067;-83
2023/07/22 15:03:18;;;;;;;19.77;7.35;;;41.80;40.70;;;;;;4949259;29;20117;-84
2023/07/22 15:06:09;;;;;;;17.70;4.65;;;41.50;40.00;;;;;;4934224;29;20102;-85
2023/07/22 15:08:56;;;;;;;14.07;3.53;;;42.20;40.10;;;;;;4925429;29;20052;-88
2023/07/22 15:11:27;;;;;;;19.60;3.88;;;42.70;39.70;;;;;;4941755;29;20100;-83
2023/07/22 15:14:05;;;;;;;21.20;4.07;;;43.30;39.30;;;;;;4925021;29;20048;-85
2023/07/22 15:16:42;;;;;;;17.95;3.95;;;41.70;39.00;;;;;;4937883;29;20063;-88
2023/07/22 15:19:16;;;;;;;19.55;4.82;;;42.90;38.60;;;;;;4932201;29;20047;-90
2023/07/22 15:21:48;;;;;;;15.07;4.60;;;42.10;38.50;;;;;;4935185;29;20051;-88
2023/07/22 15:24:16;;;;;;;21.77;3.83;;;42.30;38.20;;;;;;4918152;29;20052;-87
2023/07/22 15:31:24;;;;;;;17.30;4.07;;;42.20;38.60;;;;;;4979861;23;20081;-90
2023/07/22 15:34:36;;;;;;;;;;;42.70;38.70;;;;;;4981492;28;20078;-85
2023/07/22 15:47:33;;;;;;;19.35;4.22;;;41.90;39.00;;;;;;5255094;23;20055;-88
2023/07/22 15:54:07;;;;;;;21.70;4.80;;;42.20;38.70;;;;;;4727943;23;20063;-89
2023/07/22 16:01:26;;;;;;;22.92;5.93;;;40.90;38.70;;;;;;4869525;29;20041;-88
2023/07/22 16:03:54;;;;;;;20.23;8.23;;;40.80;38.80;;;;;;4848362;29;20114;-81
2023/07/22 16:06:25;;;;;;;15.98;4.90;;;41.10;39.80;;;;;;4851351;29;20325;-87
2023/07/22 16:09:04;;;;;;;21.05;11.70;;;40.90;40.40;;;;;;4910845;29;20106;-82
2023/07/22 16:11:34;;;;;;;17.88;5.70;;;41.20;40.30;;;;;;4911276;29;20385;-81
2023/07/22 16:14:07;;;;;;;15.40;3.42;;;40.80;40.30;;;;;;4988514;23;20051;-82
2023/07/22 16:16:41;;;;;;;19.00;4.03;;;39.80;40.00;;;;;;4921789;29;20051;-81
2023/07/22 16:19:09;;;;;;;19.50;4.65;;;40.10;39.30;;;;;;4917210;29;20048;-80
2023/07/22 16:22:18;;;;;;;14.07;3.75;;;40.40;39.70;;;;;;4923832;29;20431;-81
2023/07/22 16:24:47;;;;;;;21.73;4.80;;;40.10;39.90;;;;;;4910629;29;20058;-80
2023/07/22 16:27:18;;;;;;;19.85;3.42;;;40.00;39.40;;;;;;4899033;29;20051;-83
2023/07/22 16:29:46;;;;;;;15.80;2.95;;;40.30;39.30;;;;;;4937434;29;20039;-81
2023/07/22 16:32:18;;;;;;;14.77;3.45;;;39.70;39.40;;;;;;4920737;29;20052;-86
2023/07/22 16:35:01;;;;;;;17.58;5.32;;;39.30;39.40;;;;;;4901105;29;20428;-80
2023/07/22 16:37:34;;;;;;;30.88;18.75;;;39.80;39.20;;;;;;4920437;29;20504;-80
2023/07/22 16:40:04;;;;;;;36.63;23.70;;;39.10;40.10;;;;;;4922364;29;20039;-80
2023/07/22 16:42:31;;;;;;;17.08;5.00;;;38.70;40.40;;;;;;4925649;29;20126;-79
2023/07/22 16:45:02;;;;;;;13.50;5.68;;;38.70;40.70;;;;;;4916408;29;20040;-83
2023/07/22 16:47:37;;;;;;;13.63;6.57;;;38.50;40.70;;;;;;4921469;29;20048;-83
2023/07/22 16:50:31;;;;;;;21.00;6.47;;;38.40;40.20;;;;;;4908554;29;20039;-79
2023/07/22 16:52:58;;;;;;;18.70;7.50;;;38.50;40.80;;;;;;4896263;29;20044;-80
2023/07/22 16:55:27;;;;;;;22.02;8.05;;;38.00;41.40;;;;;;4932665;29;20044;-83
2023/07/22 16:57:54;;;;;;;16.42;7.03;;;37.70;41.50;;;;;;4937274;29;20123;-82
2023/07/22 17:00:24;;;;;;;18.67;7.45;;;37.50;41.90;;;;;;4897239;29;20099;-81
2023/07/22 17:02:53;;;;;;;14.70;6.40;;;37.10;41.10;;;;;;4929744;29;20109;-81
2023/07/22 17:05:25;;;;;;;30.00;15.15;;;37.00;41.60;;;;;;4919306;29;20095;-81
2023/07/22 17:08:02;;;;;;;23.13;11.93;;;36.80;41.80;;;;;;4912414;29;20171;-82
2023/07/22 17:10:39;;;;;;;36.60;21.92;;;36.50;41.80;;;;;;4919970;29;20476;-81
2023/07/22 17:13:08;;;;;;;13.40;4.47;;;36.50;42.10;;;;;;4918310;29;21652;-82
2023/07/22 17:15:56;;;;;;;13.40;4.78;;;36.50;42.10;;;;;;4901336;29;20052;-81
2023/07/22 17:18:27;;;;;;;17.48;3.75;;;36.40;42.50;;;;;;4914816;29;20064;-81